Time;durP1;ratioP1;P1;durP2;ratioP2;P2;SDS_P1;SDS_P2;PMS_P1;PMS_P2;Temp;Humidity;BMP_temperature;BMP_pressure;BME280_temperature;BME280_humidity;BME280_pressure;Samples;Min_cycle;Max_cycle;Signal;HPM_P1;HPM_P2
2022/09/02 00:01:28;;;;;;;5.25;1.90;;;17.50;99.90;;;;;;5034280;28;20021;-56
2022/09/02 00:04:01;;;;;;;2.75;1.77;;;17.40;99.90;;;;;;5036426;28;20479;-57
2022/09/02 00:06:28;;;;;;;5.05;1.58;;;17.40;99.90;;;;;;5042067;28;20040;-57
2022/09/02 00:08:54;;;;;;;4.00;1.63;;;17.30;99.90;;;;;;5037230;28;20025;-57
2022/09/02 00:11:23;;;;;;;5.80;1.52;;;17.10;99.90;;;;;;5036608;28;20036;-58
2022/09/02 00:13:49;;;;;;;5.68;1.33;;;17.10;99.90;;;;;;5037373;28;20115;-58
2022/09/02 00:16:16;;;;;;;2.90;1.23;;;17.00;99.90;;;;;;5022041;28;22201;-55
2022/09/02 00:18:43;;;;;;;3.35;1.63;;;16.90;99.90;;;;;;5036299;28;21937;-57
2022/09/02 00:21:10;;;;;;;4.15;1.58;;;16.90;99.90;;;;;;5041503;28;20021;-56
2022/09/02 00:23:37;;;;;;;8.05;1.50;;;16.90;99.90;;;;;;5040364;28;20112;-57
2022/09/02 00:26:03;;;;;;;3.20;1.10;;;16.80;99.90;;;;;;5035882;28;20763;-56
2022/09/02 00:28:29;;;;;;;3.55;1.13;;;16.80;99.90;;;;;;5039593;28;20047;-57
2022/09/02 00:30:54;;;;;;;3.08;1.45;;;16.70;99.90;;;;;;5040963;28;20044;-57
2022/09/02 00:33:20;;;;;;;7.00;1.55;;;16.70;99.90;;;;;;5041977;28;20112;-57
2022/09/02 00:35:46;;;;;;;10.32;1.65;;;16.70;99.90;;;;;;5040763;28;20128;-54
2022/09/02 00:38:12;;;;;;;1.92;1.17;;;16.70;99.90;;;;;;5042483;28;20037;-56
2022/09/02 00:40:42;;;;;;;2.95;1.45;;;16.70;99.90;;;;;;5043927;28;20550;-56
2022/09/02 00:43:08;;;;;;;6.75;2.03;;;16.70;99.90;;;;;;5040806;28;20053;-57
2022/09/02 00:45:35;;;;;;;2.45;1.50;;;16.70;99.90;;;;;;5041411;28;20025;-57
2022/09/02 00:48:01;;;;;;;1.48;1.10;;;16.70;99.90;;;;;;5037852;28;20506;-56
2022/09/02 00:50:31;;;;;;;2.28;1.20;;;16.70;99.90;;;;;;5040356;28;20028;-56
2022/09/02 00:53:07;;;;;;;5.72;1.48;;;16.60;99.90;;;;;;5042361;28;20029;-57
2022/09/02 00:55:40;;;;;;;2.42;1.20;;;16.60;99.90;;;;;;5041732;28;20111;-56
2022/09/02 00:58:12;;;;;;;1.58;1.15;;;16.60;99.90;;;;;;5041600;28;20920;-57
2022/09/02 01:00:41;;;;;;;2.60;1.10;;;16.50;99.90;;;;;;5042689;28;20510;-57
2022/09/02 01:03:11;;;;;;;7.45;1.33;;;16.50;99.90;;;;;;5040486;28;20210;-57
2022/09/02 01:05:43;;;;;;;4.88;1.50;;;16.40;99.90;;;;;;5040581;28;20021;-54
2022/09/02 01:08:14;;;;;;;2.35;1.08;;;16.40;99.90;;;;;;5036865;28;20033;-57
2022/09/02 01:10:41;;;;;;;2.25;1.20;;;16.30;99.90;;;;;;5038982;28;20099;-56
2022/09/02 01:13:10;;;;;;;4.22;1.27;;;16.30;99.90;;;;;;5041547;28;20024;-53
2022/09/02 01:15:40;;;;;;;2.20;1.15;;;16.30;99.90;;;;;;5042145;28;20033;-56
2022/09/02 01:18:08;;;;;;;6.78;1.17;;;16.20;99.90;;;;;;5042865;28;20027;-54
2022/09/02 01:20:34;;;;;;;2.38;1.00;;;16.30;99.90;;;;;;5039094;28;20138;-57
2022/09/02 01:23:01;;;;;;;1.40;0.90;;;16.30;99.90;;;;;;5039530;28;20578;-56
2022/09/02 01:25:30;;;;;;;5.43;1.20;;;16.30;99.90;;;;;;5040418;28;20033;-54
2022/09/02 01:28:12;;;;;;;1.45;1.15;;;16.30;99.90;;;;;;5042608;28;20041;-57
2022/09/02 01:30:41;;;;;;;19.13;1.67;;;16.30;99.90;;;;;;5041027;28;20075;-54
2022/09/02 01:33:07;;;;;;;2.63;1.42;;;16.30;99.90;;;;;;5045035;28;20020;-55
2022/09/02 01:35:33;;;;;;;1.27;1.00;;;16.30;99.90;;;;;;5071246;22;20040;-60
2022/09/02 01:38:00;;;;;;;1.48;1.02;;;16.30;99.90;;;;;;5060951;28;20108;-58
2022/09/02 01:40:28;;;;;;;4.97;1.00;;;16.30;99.90;;;;;;5061708;28;20165;-60
2022/09/02 01:42:57;;;;;;;2.20;1.02;;;16.30;99.90;;;;;;5057742;28;20020;-61
2022/09/02 01:45:23;;;;;;;2.58;1.15;;;16.30;99.90;;;;;;5059208;28;20016;-61
2022/09/02 01:47:49;;;;;;;3.25;1.20;;;16.20;99.90;;;;;;5063159;28;20028;-58
2022/09/02 01:50:15;;;;;;;6.70;1.10;;;16.30;99.90;;;;;;5061879;28;20029;-58
2022/09/02 01:52:41;;;;;;;3.35;0.82;;;16.30;99.90;;;;;;5060683;28;20028;-60
2022/09/02 01:55:06;;;;;;;4.00;0.95;;;16.30;99.90;;;;;;5060556;28;20051;-61
2022/09/02 01:57:32;;;;;;;3.80;0.95;;;16.30;99.90;;;;;;5060812;28;20040;-60
2022/09/02 02:00:00;;;;;;;2.50;1.17;;;16.30;99.90;;;;;;5062765;28;20025;-62
2022/09/02 02:02:26;;;;;;;2.47;1.25;;;16.30;99.90;;;;;;5061033;28;20020;-61
2022/09/02 02:04:51;;;;;;;4.00;0.73;;;16.20;99.90;;;;;;5061572;28;20118;-61
2022/09/02 02:07:18;;;;;;;2.03;1.20;;;16.30;99.90;;;;;;5064543;28;20465;-60
2022/09/02 02:09:44;;;;;;;6.63;1.17;;;16.20;99.90;;;;;;5067961;28;20028;-59
2022/09/02 02:12:10;;;;;;;1.95;1.10;;;16.30;99.90;;;;;;5061515;28;21986;-57
2022/09/02 02:14:36;;;;;;;2.80;1.05;;;16.20;99.90;;;;;;5061928;28;20035;-61
2022/09/02 02:17:02;;;;;;;5.00;1.20;;;16.20;99.90;;;;;;5058541;28;20032;-61
2022/09/02 02:19:28;;;;;;;6.00;1.00;;;16.20;99.90;;;;;;5063052;28;20028;-59
2022/09/02 02:21:54;;;;;;;1.45;0.80;;;16.20;99.90;;;;;;5059625;28;20040;-59
2022/09/02 02:24:19;;;;;;;2.55;1.20;;;16.20;99.90;;;;;;5059504;28;20036;-58
2022/09/02 02:26:46;;;;;;;6.53;1.23;;;16.10;99.90;;;;;;5060154;28;20033;-62
2022/09/02 02:29:12;;;;;;;6.88;1.30;;;16.20;99.90;;;;;;5061420;28;20024;-59
2022/09/02 02:31:38;;;;;;;2.78;0.85;;;16.10;99.90;;;;;;5065005;28;20948;-58
2022/09/02 02:34:04;;;;;;;2.17;1.20;;;16.10;99.90;;;;;;5068624;28;20036;-59
2022/09/02 02:36:30;;;;;;;0.82;0.80;;;16.10;99.90;;;;;;5069490;28;20024;-60
2022/09/02 02:38:55;;;;;;;1.73;0.93;;;16.10;99.90;;;;;;5065948;28;20526;-59
2022/09/02 02:41:21;;;;;;;1.63;0.98;;;16.10;99.90;;;;;;5067883;28;20024;-60
2022/09/02 02:43:46;;;;;;;2.10;0.93;;;16.10;99.90;;;;;;5062918;28;20024;-59
2022/09/02 02:46:14;;;;;;;2.10;1.27;;;16.10;99.90;;;;;;5063393;28;20029;-59
2022/09/02 02:48:41;;;;;;;1.25;0.80;;;16.10;99.90;;;;;;5059971;28;20021;-59
2022/09/02 02:51:08;;;;;;;1.52;0.90;;;16.10;99.90;;;;;;5061735;28;21295;-59
2022/09/02 02:53:35;;;;;;;3.33;1.00;;;16.10;99.90;;;;;;5060942;28;20044;-59
2022/09/02 02:56:00;;;;;;;5.45;1.20;;;16.10;99.90;;;;;;5057265;28;20078;-61
2022/09/02 02:58:26;;;;;;;1.95;0.88;;;16.20;99.90;;;;;;5062263;28;20024;-60
2022/09/02 03:00:53;;;;;;;6.53;1.70;;;16.20;99.90;;;;;;5058455;28;20039;-61
2022/09/02 03:03:21;;;;;;;4.97;0.63;;;16.20;99.90;;;;;;5057800;28;20048;-61
2022/09/02 03:05:47;;;;;;;2.88;1.05;;;16.30;99.90;;;;;;5060503;28;20021;-61
2022/09/02 03:08:14;;;;;;;1.60;1.08;;;16.30;99.90;;;;;;5057500;28;20024;-61
2022/09/02 03:10:40;;;;;;;5.50;0.90;;;16.30;99.90;;;;;;5057987;28;20042;-61
2022/09/02 03:13:08;;;;;;;2.22;1.30;;;16.40;99.90;;;;;;5057470;28;20460;-60
2022/09/02 03:15:35;;;;;;;1.48;0.90;;;16.40;99.90;;;;;;5059166;28;20028;-59
2022/09/02 03:18:00;;;;;;;1.52;0.90;;;16.40;99.90;;;;;;5057933;28;20029;-58
2022/09/02 03:20:26;;;;;;;1.38;1.00;;;16.40;99.90;;;;;;5059700;28;20036;-60
2022/09/02 03:22:55;;;;;;;3.72;1.00;;;16.40;99.90;;;;;;5058770;28;20279;-60
2022/09/02 03:25:21;;;;;;;3.83;1.63;;;16.40;99.90;;;;;;5057633;28;20933;-56
2022/09/02 03:27:48;;;;;;;1.73;0.90;;;16.40;99.90;;;;;;5057303;28;20024;-62
2022/09/02 03:30:18;;;;;;;4.70;0.98;;;16.40;99.90;;;;;;5058081;28;20024;-58
2022/09/02 03:32:44;;;;;;;8.05;1.10;;;16.40;99.90;;;;;;5060903;28;20052;-60
2022/09/02 03:35:12;;;;;;;2.38;0.98;;;16.40;99.90;;;;;;5062000;28;20071;-60
2022/09/02 03:37:38;;;;;;;2.42;0.95;;;16.40;99.90;;;;;;5058870;28;20025;-63
2022/09/02 03:40:14;;;;;;;1.27;0.82;;;16.40;99.90;;;;;;5058310;28;20411;-60
2022/09/02 03:42:39;;;;;;;2.35;1.05;;;16.40;99.90;;;;;;5058410;28;20413;-59
2022/09/02 03:45:06;;;;;;;1.60;0.80;;;16.50;99.90;;;;;;5058155;28;20029;-59
2022/09/02 03:47:32;;;;;;;5.15;1.00;;;16.50;99.90;;;;;;5059671;28;20394;-57
2022/09/02 03:49:58;;;;;;;1.17;0.90;;;16.50;99.90;;;;;;5057165;28;20441;-58
2022/09/02 03:52:24;;;;;;;3.03;1.10;;;16.60;99.90;;;;;;5060604;28;20039;-62
2022/09/02 03:54:50;;;;;;;2.67;1.27;;;16.60;99.90;;;;;;5058548;28;20030;-61
2022/09/02 03:57:16;;;;;;;2.85;1.00;;;16.60;99.90;;;;;;5057110;28;20439;-60
2022/09/02 03:59:41;;;;;;;1.42;0.90;;;16.60;99.90;;;;;;5058340;28;20031;-57
2022/09/02 04:02:07;;;;;;;4.25;0.93;;;16.60;99.90;;;;;;5057478;28;20060;-57
2022/09/02 04:04:33;;;;;;;12.65;1.35;;;16.60;99.90;;;;;;5062453;28;20047;-60
2022/09/02 04:06:59;;;;;;;1.42;0.93;;;16.60;99.90;;;;;;5070726;28;20025;-57
2022/09/02 04:09:25;;;;;;;2.25;0.98;;;16.60;99.90;;;;;;5063527;28;20024;-59
2022/09/02 04:11:50;;;;;;;1.65;0.77;;;16.60;99.90;;;;;;5060158;28;20097;-60
2022/09/02 04:14:16;;;;;;;3.33;1.00;;;16.60;99.90;;;;;;5063484;28;22037;-57
2022/09/02 04:16:42;;;;;;;4.47;0.98;;;16.60;99.90;;;;;;5063139;28;20028;-59
2022/09/02 04:19:08;;;;;;;7.53;1.05;;;16.60;99.90;;;;;;5064969;28;20025;-59
2022/09/02 04:21:36;;;;;;;2.20;0.85;;;16.60;99.90;;;;;;5063725;28;20082;-59
2022/09/02 04:24:03;;;;;;;3.42;1.00;;;16.60;99.90;;;;;;5076084;28;20107;-57
2022/09/02 04:26:29;;;;;;;3.50;1.33;;;16.60;99.90;;;;;;5069545;28;20986;-55
2022/09/02 04:28:55;;;;;;;1.58;1.00;;;16.60;99.90;;;;;;5066027;28;20033;-55
2022/09/02 04:31:28;;;;;;;3.13;0.80;;;16.60;99.90;;;;;;5064334;28;20027;-58
2022/09/02 04:33:55;;;;;;;2.78;0.90;;;16.60;99.90;;;;;;5061424;28;20056;-58
2022/09/02 04:36:21;;;;;;;2.35;0.93;;;16.60;99.90;;;;;;5062385;28;20020;-60
2022/09/02 04:38:47;;;;;;;3.03;1.20;;;16.60;99.90;;;;;;5062773;28;20021;-59
2022/09/02 04:41:17;;;;;;;3.50;1.20;;;16.60;99.90;;;;;;5069499;28;20490;-59
2022/09/02 04:43:42;;;;;;;3.72;1.23;;;16.60;99.90;;;;;;5061184;28;20049;-60
2022/09/02 04:46:11;;;;;;;2.88;0.90;;;16.60;99.90;;;;;;5061552;28;20319;-59
2022/09/02 04:48:37;;;;;;;2.47;1.05;;;16.60;99.90;;;;;;5061827;28;20025;-61
2022/09/02 04:51:06;;;;;;;1.88;1.00;;;16.60;99.90;;;;;;5061221;28;20029;-62
2022/09/02 04:53:32;;;;;;;4.53;1.33;;;16.60;99.90;;;;;;5064477;28;20051;-62
2022/09/02 04:55:57;;;;;;;4.03;1.10;;;16.60;99.90;;;;;;5061318;28;20028;-61
2022/09/02 04:58:23;;;;;;;3.25;1.35;;;16.60;99.90;;;;;;5061717;28;20043;-61
2022/09/02 05:00:48;;;;;;;4.78;1.20;;;16.60;99.90;;;;;;5061462;28;20040;-61
2022/09/02 05:03:14;;;;;;;3.10;1.40;;;16.70;99.90;;;;;;5057363;28;20059;-60
2022/09/02 05:05:40;;;;;;;2.25;1.00;;;16.70;99.90;;;;;;5058655;28;20388;-60
2022/09/02 05:08:05;;;;;;;5.38;1.30;;;16.70;99.90;;;;;;5064337;28;20024;-57
2022/09/02 05:10:31;;;;;;;2.80;1.10;;;16.80;99.90;;;;;;5059557;28;20119;-57
2022/09/02 05:12:58;;;;;;;2.03;1.02;;;16.80;99.90;;;;;;5062715;28;20490;-60
2022/09/02 05:15:24;;;;;;;3.08;1.00;;;16.70;99.90;;;;;;5061875;28;20102;-60
2022/09/02 05:17:49;;;;;;;5.38;0.85;;;16.80;99.90;;;;;;5062739;28;20490;-60
2022/09/02 05:20:15;;;;;;;2.38;1.10;;;16.80;99.90;;;;;;5062042;28;20039;-61
2022/09/02 05:22:42;;;;;;;1.90;0.93;;;16.70;99.90;;;;;;5062732;28;20035;-60
2022/09/02 05:25:08;;;;;;;2.28;0.80;;;16.70;99.90;;;;;;5063115;28;20044;-62
2022/09/02 05:27:34;;;;;;;2.67;1.00;;;16.70;99.90;;;;;;5063614;28;20159;-59
2022/09/02 05:30:01;;;;;;;1.77;0.80;;;16.70;99.90;;;;;;5061406;28;20033;-60
2022/09/02 05:32:27;;;;;;;1.83;1.00;;;16.70;99.90;;;;;;5061307;28;20486;-61
2022/09/02 05:34:54;;;;;;;3.53;1.05;;;16.70;99.90;;;;;;5065041;28;20033;-60
2022/09/02 05:37:20;;;;;;;3.70;1.08;;;16.70;99.90;;;;;;5070553;28;20381;-60
2022/09/02 05:39:46;;;;;;;1.80;0.95;;;16.80;99.90;;;;;;5064616;28;20047;-59
2022/09/02 05:42:12;;;;;;;2.65;0.93;;;16.80;99.90;;;;;;5063040;28;20031;-56
2022/09/02 05:44:37;;;;;;;5.15;0.85;;;16.80;99.90;;;;;;5064167;28;20021;-59
2022/09/02 05:47:03;;;;;;;3.50;0.90;;;16.80;99.90;;;;;;5062700;28;20028;-60
2022/09/02 05:49:29;;;;;;;2.35;1.10;;;16.90;99.90;;;;;;5059745;28;20422;-57
2022/09/02 05:51:58;;;;;;;1.00;0.80;;;16.90;99.90;;;;;;5061437;28;20115;-58
2022/09/02 05:54:32;;;;;;;5.38;1.13;;;17.00;99.90;;;;;;5063969;28;20035;-57
2022/09/02 05:57:00;;;;;;;6.95;1.00;;;17.00;99.90;;;;;;5060344;28;20063;-58
2022/09/02 05:59:28;;;;;;;3.63;1.27;;;17.00;99.90;;;;;;5061297;28;20048;-59
2022/09/02 06:01:55;;;;;;;5.10;1.25;;;17.10;99.90;;;;;;5060476;28;20100;-60
2022/09/02 06:04:21;;;;;;;1.70;1.00;;;17.10;99.90;;;;;;5060977;28;20044;-60
2022/09/02 06:06:47;;;;;;;3.30;0.90;;;17.10;99.90;;;;;;5060580;28;20021;-58
2022/09/02 06:09:16;;;;;;;1.73;1.02;;;17.20;99.90;;;;;;5060471;28;20498;-62
2022/09/02 06:11:48;;;;;;;4.95;1.02;;;17.20;99.90;;;;;;5062649;28;20032;-56
2022/09/02 06:14:16;;;;;;;3.60;1.17;;;17.30;99.90;;;;;;5063112;28;20033;-56
2022/09/02 06:16:42;;;;;;;6.03;1.20;;;17.30;99.90;;;;;;5062045;28;20441;-56
2022/09/02 06:19:08;;;;;;;4.28;1.08;;;17.40;99.90;;;;;;5059417;28;20028;-58
2022/09/02 06:21:36;;;;;;;3.53;0.80;;;17.40;99.90;;;;;;5056977;28;20085;-57
2022/09/02 06:24:08;;;;;;;5.15;1.00;;;17.50;99.90;;;;;;5058849;28;20093;-60
2022/09/02 06:26:35;;;;;;;5.15;1.13;;;17.50;99.90;;;;;;5061212;28;20039;-58
2022/09/02 06:29:00;;;;;;;2.58;0.88;;;17.50;99.90;;;;;;5059760;28;20033;-60
2022/09/02 06:31:26;;;;;;;1.65;0.90;;;17.50;99.90;;;;;;5062447;28;20076;-56
2022/09/02 06:33:54;;;;;;;1.45;0.98;;;17.60;99.90;;;;;;5056243;28;20056;-56
2022/09/02 06:36:21;;;;;;;7.85;1.25;;;17.60;99.90;;;;;;5060933;28;20020;-60
2022/09/02 06:38:49;;;;;;;4.13;1.40;;;17.60;99.90;;;;;;5066419;28;20031;-57
2022/09/02 06:41:18;;;;;;;1.88;0.77;;;17.70;99.90;;;;;;5063341;28;20054;-57
2022/09/02 06:43:44;;;;;;;3.08;1.40;;;17.70;99.90;;;;;;5059766;28;20032;-58
2022/09/02 06:46:19;;;;;;;2.22;1.20;;;17.80;99.90;;;;;;5063651;28;20082;-58
2022/09/02 06:48:44;;;;;;;3.83;1.00;;;17.80;99.90;;;;;;5069131;28;20020;-60
2022/09/02 06:51:23;;;;;;;2.53;0.90;;;17.80;99.90;;;;;;5058883;28;20029;-57
2022/09/02 06:53:49;;;;;;;3.70;1.15;;;17.90;99.90;;;;;;5057184;28;20149;-59
2022/09/02 06:56:14;;;;;;;2.80;1.08;;;18.00;99.90;;;;;;5064947;28;20542;-59
2022/09/02 06:58:40;;;;;;;3.42;0.90;;;18.00;99.90;;;;;;5059583;28;20115;-60
2022/09/02 07:01:06;;;;;;;5.10;1.58;;;18.10;99.90;;;;;;5063307;28;20072;-59
2022/09/02 07:06:17;;;;;;;3.92;1.02;;;18.00;99.90;;;;;;5057861;28;20576;-59
2022/09/02 07:08:43;;;;;;;3.25;1.67;;;18.10;99.90;;;;;;5059601;28;20032;-58
2022/09/02 07:11:19;;;;;;;6.63;1.40;;;18.10;99.90;;;;;;5057515;28;20039;-60
2022/09/02 07:13:45;;;;;;;2.95;1.30;;;18.10;99.90;;;;;;5060996;28;20031;-59
2022/09/02 07:16:11;;;;;;;3.17;1.30;;;18.20;99.90;;;;;;5065275;28;20032;-58
2022/09/02 07:18:37;;;;;;;6.15;1.30;;;18.10;99.90;;;;;;5060101;28;20028;-58
2022/09/02 07:21:02;;;;;;;2.05;1.60;;;18.10;99.90;;;;;;5057529;28;20012;-60
2022/09/02 07:23:28;;;;;;;2.60;0.90;;;18.10;99.90;;;;;;5058109;28;20025;-59
2022/09/02 07:25:54;;;;;;;3.00;0.93;;;18.10;99.90;;;;;;5059267;28;20040;-57
2022/09/02 07:28:21;;;;;;;2.78;1.13;;;18.20;99.90;;;;;;5061537;28;20024;-60
2022/09/02 07:30:47;;;;;;;4.10;1.13;;;18.20;99.90;;;;;;5063461;28;20041;-60
2022/09/02 07:33:13;;;;;;;1.40;0.98;;;18.30;99.90;;;;;;5057643;28;20020;-58
2022/09/02 07:35:42;;;;;;;1.98;1.10;;;18.40;99.90;;;;;;5074570;22;20079;-64
2022/09/02 07:38:09;;;;;;;6.85;1.38;;;18.50;99.90;;;;;;5045887;28;20029;-65
2022/09/02 07:40:35;;;;;;;4.93;1.10;;;18.60;99.90;;;;;;5039805;28;20017;-64
2022/09/02 07:43:03;;;;;;;1.42;0.80;;;18.70;99.90;;;;;;5040087;28;20033;-64
2022/09/02 07:45:30;;;;;;;3.25;1.10;;;18.80;99.90;;;;;;5044811;28;20028;-64
2022/09/02 07:47:56;;;;;;;3.42;1.17;;;18.90;99.90;;;;;;5047386;28;20025;-63
2022/09/02 07:50:23;;;;;;;1.80;1.20;;;19.00;99.90;;;;;;5048905;28;20154;-64
2022/09/02 07:52:49;;;;;;;9.60;1.42;;;19.00;99.90;;;;;;5047344;28;20032;-62
2022/09/02 07:55:15;;;;;;;2.42;1.15;;;19.10;99.90;;;;;;5049751;28;20025;-64
2022/09/02 07:57:40;;;;;;;3.55;1.30;;;19.10;99.90;;;;;;5048311;28;20156;-65
2022/09/02 08:00:07;;;;;;;3.28;1.70;;;19.20;99.90;;;;;;5047560;28;20033;-64
2022/09/02 08:02:33;;;;;;;2.88;1.20;;;19.20;99.90;;;;;;5047072;28;20035;-64
2022/09/02 08:04:59;;;;;;;6.05;1.13;;;19.20;99.90;;;;;;5048211;28;20028;-64
2022/09/02 08:07:24;;;;;;;4.13;1.00;;;19.40;99.90;;;;;;5047308;28;20116;-64
2022/09/02 08:09:51;;;;;;;2.47;1.30;;;19.40;99.90;;;;;;5047360;28;20380;-64
2022/09/02 08:12:17;;;;;;;0.95;0.82;;;19.60;99.90;;;;;;5046411;28;20021;-64
2022/09/02 08:14:43;;;;;;;2.15;1.23;;;19.70;99.90;;;;;;5048290;28;20029;-64
2022/09/02 08:17:08;;;;;;;3.85;1.00;;;19.80;99.90;;;;;;5038896;28;21212;-64
2022/09/02 08:19:34;;;;;;;1.23;0.95;;;19.90;99.90;;;;;;5040926;28;20100;-64
2022/09/02 08:22:05;;;;;;;1.90;1.35;;;20.00;99.90;;;;;;5039408;28;20029;-64
2022/09/02 08:24:31;;;;;;;2.78;1.25;;;20.20;99.90;;;;;;5037857;28;20502;-62
2022/09/02 08:26:57;;;;;;;3.45;1.20;;;20.30;99.90;;;;;;5039229;28;20486;-64
2022/09/02 08:29:23;;;;;;;6.90;1.30;;;20.40;99.90;;;;;;5040909;28;20041;-64
2022/09/02 08:31:48;;;;;;;6.93;1.13;;;20.50;99.90;;;;;;5044864;28;20045;-64
2022/09/02 08:34:14;;;;;;;1.63;1.52;;;20.60;99.90;;;;;;5042007;28;20482;-63
2022/09/02 08:36:42;;;;;;;6.15;1.25;;;20.70;99.90;;;;;;5038930;28;20037;-64
2022/09/02 08:39:08;;;;;;;3.90;1.20;;;20.70;99.90;;;;;;5037990;28;20025;-64
2022/09/02 08:42:05;;;;;;;3.42;1.15;;;20.80;99.90;;;;;;5024787;28;20017;-64
2022/09/02 08:44:35;;;;;;;5.07;1.38;;;20.80;99.90;;;;;;5036709;28;20021;-64
2022/09/02 08:47:03;;;;;;;2.17;0.93;;;20.90;99.90;;;;;;5041914;28;20329;-64
2022/09/02 08:49:40;;;;;;;3.15;1.25;;;20.90;99.90;;;;;;5038714;28;20564;-63
2022/09/02 08:52:06;;;;;;;5.45;1.40;;;21.00;99.90;;;;;;5039946;28;20021;-63
2022/09/02 08:54:42;;;;;;;8.88;1.77;;;21.20;99.90;;;;;;5048643;28;20040;-64
2022/09/02 08:57:09;;;;;;;1.45;1.00;;;21.30;99.90;;;;;;5043835;28;20024;-64
2022/09/02 08:59:36;;;;;;;2.70;1.38;;;21.50;99.90;;;;;;5050624;28;20029;-64
2022/09/02 09:02:26;;;;;;;6.35;1.10;;;21.60;99.90;;;;;;5049413;28;20047;-63
2022/09/02 09:05:10;;;;;;;1.67;1.17;;;21.70;99.90;;;;;;5045719;28;20200;-64
2022/09/02 09:07:54;;;;;;;2.15;1.17;;;21.80;99.90;;;;;;5033655;28;20441;-63
2022/09/02 09:10:35;;;;;;;1.90;1.23;;;21.90;99.90;;;;;;5045711;28;20083;-64
2022/09/02 09:13:09;;;;;;;1.85;1.25;;;21.90;99.90;;;;;;5048068;28;20033;-61
2022/09/02 09:15:51;;;;;;;4.18;1.20;;;22.00;99.90;;;;;;5045390;28;20558;-61
2022/09/02 09:18:19;;;;;;;2.40;1.42;;;22.10;99.90;;;;;;5054096;28;20032;-62
2022/09/02 09:20:45;;;;;;;4.00;0.90;;;22.20;99.90;;;;;;5051202;28;20036;-61
2022/09/02 09:23:28;;;;;;;3.10;1.30;;;22.40;99.90;;;;;;5052541;28;20549;-61
2022/09/02 09:26:04;;;;;;;9.00;1.30;;;22.60;99.90;;;;;;5050914;28;20025;-63
2022/09/02 09:28:30;;;;;;;3.30;1.10;;;22.80;99.90;;;;;;5051232;28;20031;-64
2022/09/02 09:30:59;;;;;;;4.75;1.33;;;23.00;99.90;;;;;;5033215;28;20021;-63
2022/09/02 09:33:24;;;;;;;2.05;1.30;;;23.20;99.90;;;;;;5050696;28;20029;-64
2022/09/02 09:35:53;;;;;;;2.83;1.35;;;23.30;99.90;;;;;;5049159;28;20037;-64
2022/09/02 09:38:32;;;;;;;7.47;1.00;;;23.30;99.90;;;;;;5053917;28;20393;-65
2022/09/02 09:41:21;;;;;;;7.03;1.58;;;23.40;99.90;;;;;;5042724;28;20025;-64
2022/09/02 09:43:46;;;;;;;2.10;1.27;;;23.60;99.90;;;;;;5050318;28;20024;-64
2022/09/02 09:46:26;;;;;;;2.95;0.98;;;23.70;99.90;;;;;;5027586;28;20017;-64
2022/09/02 09:48:52;;;;;;;5.13;1.20;;;23.80;99.90;;;;;;5056521;28;20021;-63
2022/09/02 09:51:18;;;;;;;1.77;1.00;;;24.00;99.90;;;;;;5051221;28;20051;-64
2022/09/02 09:53:44;;;;;;;2.90;1.35;;;24.10;99.90;;;;;;5056432;28;20017;-64
2022/09/02 09:56:12;;;;;;;2.63;0.85;;;24.10;99.90;;;;;;5051113;28;20493;-64
2022/09/02 09:58:38;;;;;;;5.47;1.30;;;24.20;99.90;;;;;;5050659;28;20021;-63
2022/09/02 10:01:15;;;;;;;1.98;1.00;;;24.30;99.90;;;;;;5052327;28;20034;-64
2022/09/02 10:04:02;;;;;;;3.25;1.23;;;24.40;99.90;;;;;;5052117;28;20029;-64
2022/09/02 10:06:31;;;;;;;1.63;0.80;;;24.70;99.90;;;;;;5051201;28;20615;-64
2022/09/02 10:09:03;;;;;;;3.28;1.10;;;25.00;99.90;;;;;;5051627;28;20029;-63
2022/09/02 10:11:31;;;;;;;3.25;1.23;;;25.10;99.90;;;;;;5046479;28;20029;-64
2022/09/02 10:14:05;;;;;;;1.02;0.80;;;25.40;99.90;;;;;;5051512;28;20032;-64
2022/09/02 10:16:45;;;;;;;2.05;1.25;;;25.60;99.90;;;;;;5051639;28;20036;-63
2022/09/02 10:19:36;;;;;;;1.75;1.17;;;25.80;99.90;;;;;;5033767;28;20104;-64
2022/09/02 10:22:10;;;;;;;4.43;1.20;;;26.00;99.90;;;;;;5051857;28;20032;-64
2022/09/02 10:24:50;;;;;;;3.40;1.15;;;26.20;99.90;;;;;;5048775;28;20100;-63
2022/09/02 10:27:30;;;;;;;1.15;0.90;;;26.00;99.90;;;;;;5044189;28;20067;-64
2022/09/02 10:30:10;;;;;;;1.42;0.85;;;25.70;99.90;;;;;;5040995;28;20051;-64
2022/09/02 10:32:38;;;;;;;10.65;1.25;;;25.40;99.90;;;;;;5047296;28;20029;-64
2022/09/02 10:35:32;;;;;;;4.30;0.90;;;25.50;99.90;;;;;;5057383;28;20159;-64
2022/09/02 10:38:11;;;;;;;5.90;1.05;;;25.50;99.90;;;;;;5049816;28;20037;-63
2022/09/02 10:41:15;;;;;;;1.25;0.75;;;25.80;99.90;;;;;;5051226;28;20103;-63
2022/09/02 10:43:58;;;;;;;3.22;0.90;;;26.30;98.60;;;;;;5050267;28;20109;-64
2022/09/02 10:46:25;;;;;;;5.32;1.23;;;26.40;97.80;;;;;;5050266;28;20357;-64
2022/09/02 10:49:19;;;;;;;0.77;0.70;;;26.50;97.80;;;;;;5033355;28;20070;-64
2022/09/02 10:52:25;;;;;;;4.23;1.20;;;26.70;96.70;;;;;;5057873;28;20108;-64
2022/09/02 10:55:03;;;;;;;2.33;1.08;;;26.70;95.00;;;;;;5049753;28;20310;-64
2022/09/02 10:57:41;;;;;;;4.53;0.80;;;26.70;95.20;;;;;;5050542;28;20025;-63
2022/09/02 11:00:19;;;;;;;1.48;0.80;;;26.40;94.40;;;;;;5047659;28;20028;-64
2022/09/02 11:02:50;;;;;;;3.60;0.93;;;26.40;95.50;;;;;;5050556;28;20029;-64
2022/09/02 11:05:26;;;;;;;2.22;0.88;;;26.60;95.10;;;;;;5049592;28;20033;-63
2022/09/02 11:08:12;;;;;;;2.25;0.85;;;26.50;93.80;;;;;;5048357;28;20036;-64
2022/09/02 11:10:44;;;;;;;2.20;0.70;;;26.50;93.80;;;;;;5043981;28;20039;-64
2022/09/02 11:13:19;;;;;;;1.70;0.80;;;26.70;94.00;;;;;;5043193;28;20029;-64
2022/09/02 11:15:51;;;;;;;2.88;0.70;;;26.80;93.60;;;;;;5048597;28;20036;-63
2022/09/02 11:18:34;;;;;;;5.53;0.50;;;26.10;92.10;;;;;;5048329;28;20033;-63
2022/09/02 11:21:23;;;;;;;0.95;0.82;;;25.80;92.70;;;;;;5049179;28;20100;-64
2022/09/02 11:23:56;;;;;;;2.53;0.80;;;25.80;94.50;;;;;;5042976;28;20017;-64
2022/09/02 11:26:37;;;;;;;2.28;0.77;;;26.00;93.00;;;;;;5048269;28;20479;-61
2022/09/02 11:29:20;;;;;;;4.82;0.80;;;26.10;92.40;;;;;;5045811;28;20055;-64
2022/09/02 11:32:23;;;;;;;10.77;1.35;;;25.30;92.00;;;;;;5043890;28;20013;-64
2022/09/02 11:34:53;;;;;;;6.70;0.90;;;25.10;92.80;;;;;;5043472;28;20033;-62
2022/09/02 11:37:37;;;;;;;2.13;1.10;;;25.50;93.30;;;;;;5030741;28;20112;-63
2022/09/02 11:40:28;;;;;;;2.60;1.00;;;26.20;92.90;;;;;;5036064;28;20085;-63
2022/09/02 11:43:41;;;;;;;4.15;0.90;;;26.20;91.40;;;;;;5019461;28;20057;-64
2022/09/02 11:46:32;;;;;;;1.13;0.82;;;26.00;91.40;;;;;;5033757;28;20037;-63
2022/09/02 11:49:24;;;;;;;2.20;0.93;;;25.80;93.50;;;;;;5040061;28;20112;-63
2022/09/02 11:52:07;;;;;;;1.98;0.90;;;26.20;92.10;;;;;;5032786;28;20090;-62
2022/09/02 11:54:40;;;;;;;10.43;2.35;;;26.50;91.80;;;;;;5038591;28;20086;-63
2022/09/02 11:57:10;;;;;;;1.88;1.00;;;26.30;91.40;;;;;;5046838;28;20082;-63
2022/09/02 11:59:50;;;;;;;1.60;0.90;;;26.30;92.40;;;;;;5049649;28;20017;-62
2022/09/02 12:02:43;;;;;;;0.80;0.80;;;27.00;91.30;;;;;;5043970;28;20025;-62
2022/09/02 12:05:28;;;;;;;3.00;1.08;;;27.10;90.80;;;;;;5044750;28;20033;-63
2022/09/02 12:08:03;;;;;;;2.28;1.13;;;26.10;91.10;;;;;;5012880;28;20049;-63
2022/09/02 12:10:48;;;;;;;4.20;1.02;;;25.80;91.70;;;;;;5037697;28;20028;-63
2022/09/02 12:13:35;;;;;;;2.20;0.80;;;25.80;91.90;;;;;;5041711;28;20033;-63
2022/09/02 12:16:27;;;;;;;1.83;1.10;;;26.10;92.50;;;;;;5037691;28;20120;-63
2022/09/02 12:18:53;;;;;;;3.30;1.10;;;26.40;93.30;;;;;;5030837;28;20045;-63
2022/09/02 12:21:20;;;;;;;1.45;0.80;;;26.90;90.90;;;;;;5038655;28;20033;-63
2022/09/02 12:23:55;;;;;;;5.05;1.00;;;27.10;89.30;;;;;;5035872;28;20108;-61
2022/09/02 12:26:49;;;;;;;1.25;0.98;;;27.20;90.00;;;;;;5040630;28;20448;-63
2022/09/02 12:29:17;;;;;;;2.67;1.08;;;27.20;88.10;;;;;;5047604;28;20037;-63
2022/09/02 12:31:48;;;;;;;2.20;0.93;;;27.30;88.80;;;;;;5041581;28;20075;-63
2022/09/02 12:34:19;;;;;;;6.53;1.00;;;27.30;87.90;;;;;;5043229;28;20083;-62
2022/09/02 12:36:52;;;;;;;5.35;0.90;;;27.80;88.20;;;;;;5041776;28;20143;-62
2022/09/02 12:42:10;;;;;;;2.28;1.00;;;28.30;86.20;;;;;;5048598;28;20025;-63
2022/09/02 12:44:55;;;;;;;4.93;0.98;;;28.70;85.70;;;;;;5048594;28;20021;-63
2022/09/02 12:47:40;;;;;;;4.03;1.15;;;28.40;84.00;;;;;;5045208;28;20025;-63
2022/09/02 12:50:11;;;;;;;6.97;0.90;;;28.10;86.10;;;;;;5047848;28;20108;-63
2022/09/02 12:52:43;;;;;;;8.27;1.10;;;28.00;86.40;;;;;;5039901;28;20029;-63
2022/09/02 12:55:28;;;;;;;1.20;1.00;;;27.70;84.20;;;;;;5048663;28;20036;-59
2022/09/02 12:58:05;;;;;;;5.07;1.00;;;28.00;87.20;;;;;;5041986;28;20386;-64
2022/09/02 13:00:51;;;;;;;1.48;1.17;;;28.00;85.40;;;;;;5042280;28;20491;-62
2022/09/02 13:03:42;;;;;;;3.08;1.20;;;28.00;84.90;;;;;;5045103;28;20021;-62
2022/09/02 13:06:31;;;;;;;1.85;1.00;;;28.30;87.00;;;;;;5039860;28;20044;-62
2022/09/02 13:09:15;;;;;;;5.70;1.10;;;28.30;85.00;;;;;;5040619;28;20025;-61